createdAt,value
2023-04-15T18:20:17.240Z,11.69
2023-04-15T18:22:09.334Z,11.61
2023-04-15T18:24:01.071Z,11.55
2023-04-15T18:25:53.017Z,11.49
2023-04-15T18:27:44.988Z,11.45
2023-04-15T18:29:36.970Z,11.42
2023-04-15T18:31:28.564Z,11.38
2023-04-15T18:33:20.982Z,11.33
2023-04-15T18:35:13.948Z,11.30
2023-04-15T18:37:06.537Z,11.27
2023-04-15T18:41:11.815Z,11.24
2023-04-15T18:43:03.931Z,11.19
2023-04-15T18:44:55.969Z,11.16
2023-04-15T18:46:49.748Z,11.13
2023-04-15T18:48:41.637Z,11.12
2023-04-15T18:50:33.035Z,11.08
2023-04-15T18:52:24.501Z,11.06
2023-04-15T18:54:16.598Z,11.03
2023-04-15T18:56:08.155Z,11.00
2023-04-15T18:58:09.037Z,10.97
2023-04-15T19:00:00.851Z,10.93
2023-04-15T19:01:52.662Z,10.91
2023-04-15T19:03:44.333Z,10.89
2023-04-15T19:05:36.770Z,10.87
2023-04-15T19:07:28.114Z,10.85
2023-04-15T19:09:20.553Z,10.82
2023-04-15T19:11:12.336Z,10.80
2023-04-15T19:13:04.528Z,10.78
2023-04-15T19:14:56.384Z,10.76
2023-04-15T19:16:47.958Z,10.74
2023-04-15T19:18:39.804Z,10.73
2023-04-15T19:20:31.591Z,10.72
2023-04-15T19:22:24.632Z,10.71
2023-04-15T19:24:17.952Z,10.69
2023-04-15T19:26:10.349Z,10.69
2023-04-15T19:28:02.725Z,10.67
2023-04-15T19:29:54.714Z,10.65
2023-04-15T19:31:47.019Z,10.64
2023-04-15T19:33:39.044Z,10.63
2023-04-15T19:35:30.563Z,10.63
2023-04-15T19:39:46.224Z,10.64
2023-04-15T19:41:39.326Z,10.62
2023-04-15T19:43:32.666Z,10.62
2023-04-15T19:45:24.267Z,10.62
2023-04-15T19:47:15.970Z,10.61
2023-04-15T19:49:07.730Z,10.60
2023-04-15T19:51:00.989Z,10.59
2023-04-15T19:52:53.208Z,10.58
2023-04-15T19:54:44.441Z,10.56
2023-04-15T19:56:36.247Z,10.55
2023-04-15T19:58:28.150Z,10.55
2023-04-15T20:00:21.507Z,10.54
2023-04-15T20:02:13.573Z,10.53
2023-04-15T20:04:05.594Z,10.52
2023-04-15T20:05:57.492Z,10.51
2023-04-15T20:07:51.938Z,10.49
2023-04-15T20:09:45.460Z,10.48
2023-04-15T20:12:46.818Z,10.46
2023-04-15T20:13:48.941Z,10.41
2023-04-15T20:15:41.296Z,10.38
2023-04-15T20:17:33.761Z,10.35
2023-04-15T20:19:25.196Z,10.34
2023-04-15T20:21:17.291Z,10.28
2023-04-15T20:23:08.958Z,10.28
2023-04-15T20:25:02.020Z,10.26
2023-04-15T20:26:53.861Z,10.22
2023-04-15T20:28:45.548Z,10.20
2023-04-15T20:30:39.554Z,10.17
2023-04-15T20:32:35.616Z,10.14
2023-04-15T20:34:27.536Z,10.12
2023-04-15T20:36:19.278Z,10.11
2023-04-15T20:38:11.333Z,10.10
2023-04-15T20:40:03.515Z,10.08
2023-04-15T20:41:55.075Z,10.05
2023-04-15T20:43:46.788Z,10.04
2023-04-15T20:45:38.987Z,10.01
2023-04-15T20:47:30.620Z,9.98
2023-04-15T20:49:22.179Z,9.95
2023-04-15T20:51:13.789Z,9.92
2023-04-15T20:53:06.246Z,9.90
2023-04-15T20:54:58.190Z,9.88
2023-04-15T20:56:49.644Z,9.84
2023-04-15T20:58:41.325Z,9.82
2023-04-15T21:00:33.451Z,9.79
2023-04-15T21:02:25.640Z,9.76
2023-04-15T21:04:17.616Z,9.73
2023-04-15T21:06:09.215Z,9.69
2023-04-15T21:08:01.036Z,9.66
2023-04-15T21:10:12.482Z,9.62
2023-04-15T21:12:04.534Z,9.59
2023-04-15T21:13:56.176Z,9.55
2023-04-15T21:15:50.349Z,9.52
2023-04-15T21:17:41.926Z,9.48
2023-04-15T21:19:35.016Z,9.45
2023-04-15T21:21:28.183Z,9.42
2023-04-15T21:23:20.458Z,9.39
2023-04-15T21:25:12.482Z,9.35
2023-04-15T21:27:04.237Z,9.33
2023-04-15T21:28:56.447Z,9.29
2023-04-15T21:30:49.632Z,9.27
2023-04-15T21:32:42.407Z,9.25
2023-04-15T21:34:33.897Z,9.22
2023-04-15T21:36:26.903Z,9.18
2023-04-15T21:38:20.323Z,9.15
2023-04-15T21:40:14.754Z,9.10
2023-04-15T21:42:06.384Z,9.04
2023-04-15T21:43:58.384Z,8.99
2023-04-15T21:46:22.952Z,8.94
2023-04-15T21:48:08.048Z,8.89
2023-04-15T21:49:59.848Z,8.85
2023-04-15T21:51:51.463Z,8.84
2023-04-15T21:53:42.998Z,8.82
2023-04-15T21:55:34.874Z,8.80
2023-04-15T21:57:26.306Z,8.76
2023-04-15T21:59:18.904Z,8.70
2023-04-15T22:01:10.554Z,8.65
2023-04-15T22:03:02.185Z,8.60
2023-04-15T22:04:54.054Z,8.54
2023-04-15T22:06:46.597Z,8.50
2023-04-15T22:08:48.219Z,8.46
2023-04-15T22:11:04.530Z,8.42
2023-04-15T22:13:01.488Z,8.35
2023-04-15T22:14:53.195Z,8.28
2023-04-15T22:16:45.926Z,8.19
2023-04-15T22:18:37.739Z,8.14
2023-04-15T22:20:29.659Z,8.08
2023-04-15T22:22:21.203Z,8.02
2023-04-15T22:24:31.677Z,7.98
2023-04-15T22:26:30.775Z,7.89
2023-04-15T22:28:22.870Z,7.83
2023-04-15T22:30:14.642Z,7.77
2023-04-15T22:32:07.650Z,7.72
2023-04-15T22:33:59.661Z,7.65
2023-04-15T22:35:51.723Z,7.60
2023-04-15T22:37:43.344Z,7.55
2023-04-15T22:39:35.423Z,7.49
2023-04-15T22:41:27.566Z,7.43
2023-04-15T22:43:19.390Z,7.36
2023-04-15T22:45:12.645Z,7.32
2023-04-15T22:47:04.381Z,7.29
2023-04-15T22:48:56.158Z,7.25
2023-04-15T22:50:48.489Z,7.20
2023-04-15T22:52:40.376Z,7.15
2023-04-15T22:54:32.472Z,7.10
2023-04-15T22:56:23.970Z,7.05
2023-04-15T22:58:18.542Z,7.02
2023-04-15T23:00:10.337Z,7.01
2023-04-15T23:02:02.068Z,7.00
2023-04-15T23:03:57.376Z,6.99
2023-04-15T23:05:57.862Z,6.97
2023-04-15T23:07:49.754Z,6.98
2023-04-15T23:09:41.992Z,6.98
2023-04-15T23:11:36.500Z,6.99
2023-04-15T23:13:28.445Z,6.99
2023-04-15T23:15:20.239Z,6.98
2023-04-15T23:17:11.957Z,6.99
2023-04-15T23:19:24.393Z,6.97
2023-04-15T23:21:17.142Z,6.96
2023-04-15T23:23:09.297Z,6.94
2023-04-15T23:25:01.390Z,6.91
2023-04-15T23:26:53.326Z,6.89
2023-04-15T23:28:45.070Z,6.86
2023-04-15T23:30:36.868Z,6.83
2023-04-15T23:32:28.863Z,6.81
2023-04-15T23:34:20.689Z,6.79
2023-04-15T23:36:12.515Z,6.77
2023-04-15T23:38:06.723Z,6.76
2023-04-15T23:39:59.380Z,6.75
2023-04-15T23:41:53.681Z,6.73
2023-04-15T23:43:45.795Z,6.70
2023-04-15T23:45:37.716Z,6.68
2023-04-15T23:47:29.800Z,6.63
2023-04-15T23:49:21.456Z,6.57
2023-04-15T23:51:12.908Z,6.51
2023-04-15T23:53:04.594Z,6.46
2023-04-15T23:54:55.994Z,6.44
2023-04-15T23:56:48.323Z,6.43
2023-04-15T23:58:39.825Z,6.42
